Time;durP1;ratioP1;P1;durP2;ratioP2;P2;SDS_P1;SDS_P2;PMS_P1;PMS_P2;Temp;Humidity;BMP_temperature;BMP_pressure;BME280_temperature;BME280_humidity;BME280_pressure;Samples;Min_cycle;Max_cycle;Signal;HPM_P1;HPM_P2
2024/03/25 00:02:21;;;;;;;3.30;1.98;;;;;;;;;;6243792;22;20173;-47
2024/03/25 00:04:48;;;;;;;6.32;2.28;;;;;;;;;;6244395;22;20180;-49
2024/03/25 00:07:16;;;;;;;5.88;2.00;;;;;;;;;;6244677;22;20371;-48
2024/03/25 00:09:43;;;;;;;5.82;1.95;;;;;;;;;;6244790;22;20626;-47
2024/03/25 00:12:11;;;;;;;4.20;2.42;;;;;;;;;;6244377;22;20487;-47
2024/03/25 00:14:37;;;;;;;4.45;1.90;;;;;;;;;;6244197;22;20177;-47
2024/03/25 00:17:05;;;;;;;6.65;2.50;;;;;;;;;;6244046;22;20231;-46
2024/03/25 00:19:32;;;;;;;4.03;2.72;;;;;;;;;;6244954;23;20506;-46
2024/03/25 00:22:01;;;;;;;3.72;2.67;;;;;;;;;;6244416;22;20173;-46
2024/03/25 00:24:27;;;;;;;4.93;3.08;;;;;;;;;;6243962;22;20215;-47
2024/03/25 00:26:54;;;;;;;5.25;3.20;;;;;;;;;;6244146;22;20173;-48
2024/03/25 00:29:21;;;;;;;1.88;1.70;;;;;;;;;;6243683;22;20658;-49
2024/03/25 00:31:49;;;;;;;5.53;2.22;;;;;;;;;;6243937;22;20256;-47
2024/03/25 00:34:15;;;;;;;10.05;2.15;;;;;;;;;;6243491;22;20177;-46
2024/03/25 00:36:43;;;;;;;4.07;2.15;;;;;;;;;;6244252;22;20177;-47
2024/03/25 00:39:10;;;;;;;4.32;1.80;;;;;;;;;;6244419;22;20189;-47
2024/03/25 00:41:38;;;;;;;1.85;1.45;;;;;;;;;;6243925;22;20173;-47
2024/03/25 00:44:05;;;;;;;10.35;2.20;;;;;;;;;;6243948;22;20631;-46
2024/03/25 00:46:32;;;;;;;2.65;1.63;;;;;;;;;;6244522;22;20177;-47
2024/03/25 00:48:58;;;;;;;3.95;2.67;;;;;;;;;;6243808;22;20201;-46
2024/03/25 00:51:26;;;;;;;3.45;1.65;;;;;;;;;;6243871;22;20253;-49
2024/03/25 00:53:52;;;;;;;1.85;1.38;;;;;;;;;;6243455;22;20185;-48
2024/03/25 00:56:21;;;;;;;3.58;1.65;;;;;;;;;;6244235;22;20173;-48
2024/03/25 00:58:48;;;;;;;2.67;1.55;;;;;;;;;;6244305;22;20200;-48
2024/03/25 01:01:15;;;;;;;4.68;1.52;;;;;;;;;;6243756;22;20173;-47
2024/03/25 01:03:42;;;;;;;3.97;1.67;;;;;;;;;;6244213;22;20692;-47
2024/03/25 01:06:10;;;;;;;4.63;2.45;;;;;;;;;;6243846;22;20492;-47
2024/03/25 01:08:37;;;;;;;3.30;1.60;;;;;;;;;;6243509;22;20201;-47
2024/03/25 01:11:04;;;;;;;2.83;1.60;;;;;;;;;;6243533;22;20191;-47
2024/03/25 01:13:33;;;;;;;2.92;1.60;;;;;;;;;;6244121;22;20177;-49
2024/03/25 01:15:59;;;;;;;2.95;1.58;;;;;;;;;;6244154;22;20538;-49
2024/03/25 01:18:27;;;;;;;3.35;1.90;;;;;;;;;;6243765;22;20733;-47
2024/03/25 01:20:54;;;;;;;2.60;1.83;;;;;;;;;;6243704;22;20255;-46
2024/03/25 01:23:22;;;;;;;3.28;2.10;;;;;;;;;;6243817;22;20173;-46
2024/03/25 01:25:48;;;;;;;1.83;1.40;;;;;;;;;;6243789;22;20173;-46
2024/03/25 01:28:16;;;;;;;4.20;2.47;;;;;;;;;;6243072;22;20204;-47
2024/03/25 01:30:43;;;;;;;3.67;2.00;;;;;;;;;;6243756;22;20311;-46
2024/03/25 01:33:11;;;;;;;3.28;1.95;;;;;;;;;;6244041;22;20486;-49
2024/03/25 01:35:38;;;;;;;3.30;1.92;;;;;;;;;;6244306;22;20173;-49
2024/03/25 01:38:05;;;;;;;2.70;1.80;;;;;;;;;;6243613;22;20193;-47
2024/03/25 01:40:32;;;;;;;5.28;2.08;;;;;;;;;;6244400;22;20515;-47
2024/03/25 01:43:00;;;;;;;2.58;2.08;;;;;;;;;;6243934;22;20195;-48
2024/03/25 01:45:29;;;;;;;4.60;2.03;;;;;;;;;;6243428;22;20176;-48
2024/03/25 01:47:59;;;;;;;2.90;1.60;;;;;;;;;;6244139;22;20192;-45
2024/03/25 01:50:26;;;;;;;2.28;1.88;;;;;;;;;;6243799;22;20646;-48
2024/03/25 01:52:54;;;;;;;3.65;1.67;;;;;;;;;;6244244;23;20682;-46
2024/03/25 01:55:23;;;;;;;3.40;1.80;;;;;;;;;;6243377;22;20634;-47
2024/03/25 01:57:51;;;;;;;3.05;2.08;;;;;;;;;;6244217;23;20764;-45
2024/03/25 02:00:18;;;;;;;3.65;2.30;;;;;;;;;;6244307;22;20187;-48
2024/03/25 02:02:46;;;;;;;2.30;1.70;;;;;;;;;;6243260;22;20177;-50
2024/03/25 02:05:15;;;;;;;5.22;1.98;;;;;;;;;;6244120;23;20590;-51
2024/03/25 02:07:43;;;;;;;3.97;2.20;;;;;;;;;;6243821;22;20197;-46
2024/03/25 02:10:10;;;;;;;3.72;1.92;;;;;;;;;;6243609;22;20203;-46
2024/03/25 02:12:38;;;;;;;3.55;2.03;;;;;;;;;;6243257;22;20652;-46
2024/03/25 02:15:06;;;;;;;4.68;2.60;;;;;;;;;;6243539;22;20643;-46
2024/03/25 02:17:34;;;;;;;1.88;1.70;;;;;;;;;;6243159;22;20202;-46
2024/03/25 02:20:00;;;;;;;2.45;1.52;;;;;;;;;;6243278;22;20424;-46
2024/03/25 02:22:30;;;;;;;1.85;1.65;;;;;;;;;;6243637;22;20528;-46
2024/03/25 02:24:58;;;;;;;3.22;1.70;;;;;;;;;;6243657;23;20180;-46
2024/03/25 02:27:28;;;;;;;3.15;1.85;;;;;;;;;;6243960;23;20670;-48
2024/03/25 02:29:54;;;;;;;3.53;1.85;;;;;;;;;;6243892;23;20576;-46
2024/03/25 02:32:22;;;;;;;3.67;1.80;;;;;;;;;;6243553;23;20215;-46
2024/03/25 02:34:52;;;;;;;3.03;1.52;;;;;;;;;;6243177;22;20793;-46
2024/03/25 02:37:20;;;;;;;3.30;1.48;;;;;;;;;;6243441;22;20174;-46
2024/03/25 02:39:47;;;;;;;5.38;2.50;;;;;;;;;;6243281;22;20173;-48
2024/03/25 02:42:14;;;;;;;4.20;2.00;;;;;;;;;;6243397;22;20180;-47
2024/03/25 02:44:43;;;;;;;4.50;2.17;;;;;;;;;;6243690;22;20254;-46
2024/03/25 02:47:11;;;;;;;2.42;1.80;;;;;;;;;;6243880;23;20192;-45
2024/03/25 02:49:38;;;;;;;2.83;1.70;;;;;;;;;;6243833;23;20200;-48
2024/03/25 02:52:06;;;;;;;3.72;1.80;;;;;;;;;;6243391;22;20177;-46
2024/03/25 02:54:33;;;;;;;3.45;2.10;;;;;;;;;;6243223;22;20187;-47
2024/03/25 02:57:00;;;;;;;4.35;2.35;;;;;;;;;;6244198;22;20188;-50
2024/03/25 02:59:26;;;;;;;4.28;2.28;;;;;;;;;;6245619;22;20193;-47
2024/03/25 03:01:55;;;;;;;4.95;1.77;;;;;;;;;;6244816;22;20173;-46
2024/03/25 03:04:22;;;;;;;3.97;2.10;;;;;;;;;;6245222;22;20179;-49
2024/03/25 03:06:49;;;;;;;2.55;1.85;;;;;;;;;;6244572;22;20181;-46
2024/03/25 03:09:15;;;;;;;3.17;1.75;;;;;;;;;;6245270;22;20227;-46
2024/03/25 03:11:43;;;;;;;2.90;2.60;;;;;;;;;;6245404;22;20173;-46
2024/03/25 03:14:09;;;;;;;2.72;1.90;;;;;;;;;;6245119;22;20179;-47
2024/03/25 03:16:37;;;;;;;4.45;2.63;;;;;;;;;;6245212;22;20641;-46
2024/03/25 03:19:05;;;;;;;3.53;2.33;;;;;;;;;;6245119;22;20523;-46
2024/03/25 03:21:32;;;;;;;4.60;2.63;;;;;;;;;;6244722;22;20184;-50
2024/03/25 03:23:59;;;;;;;3.08;2.20;;;;;;;;;;6244835;22;20523;-47
2024/03/25 03:26:27;;;;;;;4.25;2.15;;;;;;;;;;6244733;22;20198;-48
2024/03/25 03:28:54;;;;;;;2.78;1.90;;;;;;;;;;6244777;22;20693;-48
2024/03/25 03:31:21;;;;;;;3.33;2.30;;;;;;;;;;6244305;22;20204;-46
2024/03/25 03:33:48;;;;;;;3.83;2.13;;;;;;;;;;6245058;22;20177;-46
2024/03/25 03:36:18;;;;;;;3.92;2.20;;;;;;;;;;6244801;22;20173;-48
2024/03/25 03:38:44;;;;;;;4.75;2.15;;;;;;;;;;6245223;22;20193;-47
2024/03/25 03:41:12;;;;;;;4.07;2.40;;;;;;;;;;6244554;22;20260;-46
2024/03/25 03:43:38;;;;;;;4.68;3.53;;;;;;;;;;6245015;22;20181;-46
2024/03/25 03:46:06;;;;;;;3.63;2.33;;;;;;;;;;6244367;22;20173;-47
2024/03/25 03:48:32;;;;;;;4.88;2.60;;;;;;;;;;6244956;22;20197;-47
2024/03/25 03:51:00;;;;;;;3.20;2.33;;;;;;;;;;6244338;22;20284;-49
2024/03/25 03:53:28;;;;;;;4.70;1.80;;;;;;;;;;6244704;22;20529;-48
2024/03/25 03:55:56;;;;;;;2.25;2.05;;;;;;;;;;6244949;22;20626;-48
2024/03/25 03:58:22;;;;;;;3.63;1.77;;;;;;;;;;6245039;22;20518;-47
2024/03/25 04:00:50;;;;;;;6.28;2.40;;;;;;;;;;6244519;22;20248;-46
2024/03/25 04:03:16;;;;;;;3.10;2.13;;;;;;;;;;6243505;22;20252;-48
2024/03/25 04:05:44;;;;;;;3.15;1.92;;;;;;;;;;6244674;22;20173;-47
2024/03/25 04:08:10;;;;;;;3.22;2.00;;;;;;;;;;6244508;22;20197;-47
2024/03/25 04:10:40;;;;;;;4.45;2.08;;;;;;;;;;6244197;22;20279;-47
2024/03/25 04:13:07;;;;;;;3.70;2.67;;;;;;;;;;6244618;23;20197;-48
2024/03/25 04:15:35;;;;;;;5.10;2.13;;;;;;;;;;6244678;22;20256;-47
2024/03/25 04:18:01;;;;;;;3.15;1.92;;;;;;;;;;6244441;22;20189;-46
2024/03/25 04:20:29;;;;;;;3.03;1.50;;;;;;;;;;6244078;22;20200;-49
2024/03/25 04:22:56;;;;;;;3.97;1.95;;;;;;;;;;6244099;22;20173;-46
2024/03/25 04:25:24;;;;;;;3.80;1.83;;;;;;;;;;6244456;22;20200;-47
2024/03/25 04:27:51;;;;;;;3.60;2.00;;;;;;;;;;6244603;22;20288;-48
2024/03/25 04:30:19;;;;;;;5.10;1.98;;;;;;;;;;6243836;22;20203;-47
2024/03/25 04:32:45;;;;;;;5.65;2.17;;;;;;;;;;6244262;22;20177;-47
2024/03/25 04:35:13;;;;;;;2.10;1.83;;;;;;;;;;6244441;22;20181;-47
